createdAt,value
2022-08-03T00:01:49.870Z,100.00
2022-08-03T00:04:16.336Z,100.00
2022-08-03T00:06:42.794Z,100.00
2022-08-03T00:09:10.577Z,100.00
2022-08-03T00:11:37.251Z,100.00
2022-08-03T00:14:05.898Z,100.00
2022-08-03T00:16:32.771Z,100.00
2022-08-03T00:19:00.821Z,100.00
2022-08-03T00:21:28.307Z,100.00
2022-08-03T00:23:54.731Z,100.00
2022-08-03T00:26:21.490Z,100.00
2022-08-03T00:28:48.569Z,100.00
2022-08-03T00:31:15.071Z,100.00
2022-08-03T00:33:58.782Z,100.00
2022-08-03T00:36:28.466Z,100.00
2022-08-03T00:38:55.544Z,100.00
2022-08-03T00:41:22.274Z,100.00
2022-08-03T00:43:48.668Z,100.00
2022-08-03T00:46:20.532Z,100.00
2022-08-03T00:48:49.015Z,100.00
2022-08-03T00:51:15.514Z,100.00
2022-08-03T00:53:41.876Z,100.00
2022-08-03T00:56:08.420Z,100.00
2022-08-03T00:58:34.887Z,100.00
2022-08-03T01:01:01.443Z,100.00
2022-08-03T01:03:27.939Z,100.00
2022-08-03T01:06:18.245Z,100.00
2022-08-03T01:09:12.224Z,100.00
2022-08-03T01:11:59.882Z,100.00
2022-08-03T01:14:53.177Z,100.00
2022-08-03T01:17:28.947Z,100.00
2022-08-03T01:19:57.941Z,100.00
2022-08-03T01:23:00.980Z,100.00
2022-08-03T01:25:45.988Z,100.00
2022-08-03T01:28:25.367Z,100.00
2022-08-03T01:30:54.678Z,100.00
2022-08-03T01:33:26.012Z,100.00
2022-08-03T01:35:59.513Z,100.00
2022-08-03T01:38:29.276Z,100.00
2022-08-03T01:40:57.014Z,100.00
2022-08-03T01:43:55.138Z,100.00
2022-08-03T01:46:16.329Z,100.00
2022-08-03T01:48:44.739Z,100.00
2022-08-03T01:51:11.957Z,100.00
2022-08-03T01:53:44.068Z,100.00
2022-08-03T01:56:12.500Z,100.00
2022-08-03T01:58:41.430Z,100.00
2022-08-03T02:01:09.998Z,100.00
2022-08-03T02:03:59.668Z,100.00
2022-08-03T02:07:00.730Z,100.00
2022-08-03T02:09:15.675Z,100.00
2022-08-03T02:11:43.570Z,100.00
2022-08-03T02:14:11.177Z,100.00
2022-08-03T02:16:38.186Z,100.00
2022-08-03T02:19:07.245Z,100.00
2022-08-03T02:21:57.005Z,100.00
2022-08-03T02:24:23.413Z,100.00
2022-08-03T02:26:53.051Z,100.00
2022-08-03T02:29:40.071Z,100.00
2022-08-03T02:32:12.348Z,100.00
2022-08-03T02:34:42.037Z,100.00
2022-08-03T02:37:10.385Z,100.00
2022-08-03T02:39:37.733Z,100.00
2022-08-03T02:42:08.566Z,100.00
2022-08-03T02:44:36.305Z,100.00
2022-08-03T02:47:08.202Z,100.00
2022-08-03T02:49:50.515Z,100.00
2022-08-03T02:52:20.728Z,100.00
2022-08-03T02:54:51.024Z,100.00
2022-08-03T02:57:19.371Z,100.00
2022-08-03T02:59:47.022Z,100.00
2022-08-03T03:02:15.714Z,100.00
2022-08-03T03:04:54.966Z,100.00
2022-08-03T03:07:31.288Z,100.00
2022-08-03T03:10:07.586Z,100.00
2022-08-03T03:12:37.039Z,100.00
2022-08-03T03:15:05.445Z,100.00
2022-08-03T03:17:33.843Z,100.00
2022-08-03T03:20:00.923Z,100.00
2022-08-03T03:22:28.776Z,100.00
2022-08-03T03:24:56.064Z,100.00
2022-08-03T03:27:23.156Z,100.00
2022-08-03T03:29:49.937Z,100.00
2022-08-03T03:32:17.199Z,100.00
2022-08-03T03:34:44.328Z,100.00
2022-08-03T03:37:10.843Z,100.00
2022-08-03T03:39:37.258Z,100.00
2022-08-03T03:42:04.957Z,100.00
2022-08-03T03:44:31.509Z,100.00
2022-08-03T03:46:58.431Z,100.00
2022-08-03T03:49:25.000Z,100.00
2022-08-03T03:51:55.416Z,100.00
2022-08-03T03:54:21.975Z,100.00
2022-08-03T03:56:52.141Z,100.00
2022-08-03T03:59:18.668Z,100.00
2022-08-03T04:01:45.622Z,100.00
2022-08-03T04:04:30.855Z,100.00
2022-08-03T04:07:15.608Z,100.00
2022-08-03T04:10:14.347Z,100.00
2022-08-03T04:12:49.934Z,100.00
2022-08-03T04:15:20.561Z,100.00
2022-08-03T04:17:50.148Z,100.00
2022-08-03T04:20:21.131Z,100.00
2022-08-03T04:22:50.990Z,100.00
2022-08-03T04:25:20.139Z,100.00
2022-08-03T04:28:29.243Z,100.00
2022-08-03T04:30:37.532Z,100.00
2022-08-03T04:33:04.480Z,100.00
2022-08-03T04:36:01.887Z,100.00
2022-08-03T04:38:21.179Z,100.00
2022-08-03T04:40:48.177Z,100.00
2022-08-03T04:43:16.624Z,100.00
2022-08-03T04:45:43.795Z,100.00
2022-08-03T04:48:10.244Z,100.00
2022-08-03T04:50:36.947Z,100.00
2022-08-03T04:53:03.543Z,100.00
2022-08-03T04:55:31.515Z,100.00
2022-08-03T04:58:02.437Z,100.00
2022-08-03T05:00:29.346Z,100.00
2022-08-03T05:02:56.264Z,100.00
2022-08-03T05:05:23.203Z,100.00
2022-08-03T05:07:50.238Z,100.00
2022-08-03T05:10:17.585Z,100.00
2022-08-03T05:12:46.228Z,100.00
2022-08-03T05:15:13.144Z,100.00
2022-08-03T05:17:40.011Z,100.00
2022-08-03T05:20:06.985Z,100.00
2022-08-03T05:22:33.487Z,100.00
2022-08-03T05:25:01.359Z,100.00
2022-08-03T05:27:27.744Z,100.00
2022-08-03T05:29:54.168Z,100.00
2022-08-03T05:32:20.726Z,100.00
2022-08-03T05:34:47.331Z,100.00
2022-08-03T05:37:13.834Z,100.00
2022-08-03T05:39:40.430Z,100.00
2022-08-03T05:42:06.878Z,100.00
2022-08-03T05:44:33.453Z,100.00
2022-08-03T05:46:59.830Z,100.00
2022-08-03T05:49:26.274Z,100.00
2022-08-03T05:52:00.374Z,100.00
2022-08-03T05:54:55.297Z,100.00
2022-08-03T05:57:23.643Z,100.00
2022-08-03T05:59:56.405Z,100.00
2022-08-03T06:02:28.545Z,100.00
2022-08-03T06:04:55.049Z,100.00
2022-08-03T06:07:21.571Z,100.00
2022-08-03T06:10:33.396Z,100.00
2022-08-03T06:12:36.075Z,100.00
2022-08-03T06:15:04.152Z,100.00
2022-08-03T06:17:37.213Z,100.00
2022-08-03T06:20:05.592Z,100.00
2022-08-03T06:22:31.985Z,100.00
2022-08-03T06:24:58.725Z,100.00
2022-08-03T06:27:37.173Z,100.00
2022-08-03T06:30:04.673Z,100.00
2022-08-03T06:32:31.071Z,100.00
2022-08-03T06:34:57.432Z,100.00
2022-08-03T06:37:24.503Z,100.00
2022-08-03T06:39:51.078Z,100.00
2022-08-03T06:42:17.704Z,100.00
2022-08-03T06:44:44.329Z,100.00
2022-08-03T06:47:10.772Z,100.00
2022-08-03T06:49:37.469Z,100.00
2022-08-03T06:52:06.947Z,100.00
2022-08-03T06:54:33.867Z,100.00
2022-08-03T06:57:00.787Z,100.00
2022-08-03T07:00:07.972Z,100.00
2022-08-03T07:02:19.096Z,100.00
2022-08-03T07:04:47.388Z,100.00
2022-08-03T07:07:14.057Z,100.00
2022-08-03T07:09:40.448Z,100.00
2022-08-03T07:12:08.323Z,100.00
2022-08-03T07:14:35.058Z,100.00
2022-08-03T07:17:01.480Z,100.00
2022-08-03T07:19:31.007Z,100.00
2022-08-03T07:22:00.182Z,100.00
2022-08-03T07:24:29.148Z,100.00
2022-08-03T07:26:55.586Z,100.00
2022-08-03T07:29:21.975Z,100.00
2022-08-03T07:31:48.393Z,100.00
2022-08-03T07:34:14.963Z,100.00
2022-08-03T07:36:41.340Z,100.00
2022-08-03T07:39:15.429Z,100.00
2022-08-03T07:41:44.413Z,100.00
2022-08-03T07:44:10.760Z,100.00
2022-08-03T07:46:37.490Z,100.00
2022-08-03T07:49:04.066Z,100.00
2022-08-03T07:51:30.434Z,100.00
2022-08-03T07:53:57.688Z,100.00
2022-08-03T07:56:27.268Z,100.00
2022-08-03T07:58:55.087Z,100.00
2022-08-03T08:01:22.485Z,100.00
2022-08-03T08:03:53.481Z,100.00
2022-08-03T08:06:20.816Z,100.00
2022-08-03T08:08:47.954Z,100.00
2022-08-03T08:11:14.426Z,100.00
2022-08-03T08:13:40.778Z,100.00
2022-08-03T08:16:07.309Z,100.00
2022-08-03T08:18:34.425Z,100.00
2022-08-03T08:21:03.111Z,100.00
2022-08-03T08:23:43.503Z,100.00
2022-08-03T08:26:11.766Z,100.00
2022-08-03T08:28:38.171Z,100.00
2022-08-03T08:31:04.576Z,100.00
2022-08-03T08:36:18.109Z,100.00
2022-08-03T08:38:45.241Z,100.00
2022-08-03T08:41:13.516Z,100.00
2022-08-03T08:43:40.732Z,100.00
2022-08-03T08:46:11.783Z,96.57
2022-08-03T08:48:42.051Z,94.08
2022-08-03T08:51:11.342Z,94.72
2022-08-03T08:53:41.462Z,92.93
2022-08-03T08:56:12.841Z,90.24
2022-08-03T08:58:44.177Z,88.09
2022-08-03T09:01:10.612Z,86.53
2022-08-03T09:03:37.349Z,83.83
2022-08-03T09:06:04.501Z,84.65
2022-08-03T09:08:32.579Z,81.77
2022-08-03T09:10:59.343Z,82.07
2022-08-03T09:13:26.309Z,80.32
2022-08-03T09:16:09.276Z,78.32
2022-08-03T09:18:35.674Z,78.60
2022-08-03T09:21:31.666Z,78.43
2022-08-03T09:24:03.188Z,77.91
2022-08-03T09:26:31.281Z,77.57
2022-08-03T09:29:04.900Z,79.19
2022-08-03T09:31:39.506Z,77.58
2022-08-03T09:34:12.786Z,77.56
2022-08-03T09:36:47.645Z,75.17
2022-08-03T09:39:40.924Z,75.69
2022-08-03T09:42:15.643Z,75.25
2022-08-03T09:44:44.463Z,76.44
2022-08-03T09:47:12.183Z,75.23
2022-08-03T09:49:41.206Z,74.88
2022-08-03T09:52:38.765Z,74.23
2022-08-03T09:56:31.554Z,74.14
2022-08-03T09:58:11.322Z,72.89
2022-08-03T10:01:24.121Z,73.12
2022-08-03T10:04:03.624Z,72.24
2022-08-03T10:06:31.588Z,72.82
2022-08-03T10:09:13.039Z,72.99
2022-08-03T10:11:41.976Z,71.04
2022-08-03T10:14:18.730Z,72.30
2022-08-03T10:16:46.753Z,69.18
2022-08-03T10:19:15.003Z,70.15
2022-08-03T10:21:47.824Z,70.57
2022-08-03T10:24:16.884Z,68.86
2022-08-03T10:26:49.512Z,68.82
2022-08-03T10:29:27.124Z,67.81
2022-08-03T10:31:58.623Z,67.23
2022-08-03T10:34:35.133Z,68.00
2022-08-03T10:37:07.873Z,65.91
2022-08-03T10:39:35.943Z,65.06
2022-08-03T10:42:03.911Z,65.20
2022-08-03T10:44:40.203Z,64.84
2022-08-03T10:47:10.130Z,64.46
2022-08-03T10:49:37.224Z,65.32
2022-08-03T10:52:12.760Z,65.53
2022-08-03T10:55:07.303Z,66.75
2022-08-03T10:57:45.085Z,64.49
2022-08-03T11:00:17.752Z,63.45
2022-08-03T11:03:10.831Z,64.27
2022-08-03T11:05:40.027Z,62.89
2022-08-03T11:08:31.097Z,62.61
2022-08-03T11:11:00.931Z,63.66
2022-08-03T11:13:31.680Z,61.64
2022-08-03T11:16:02.382Z,60.44
2022-08-03T11:18:31.585Z,60.56
2022-08-03T11:21:00.184Z,58.89
2022-08-03T11:24:05.018Z,59.26
2022-08-03T11:26:34.434Z,59.82
2022-08-03T11:29:31.948Z,59.61
2022-08-03T11:31:58.646Z,60.33
2022-08-03T11:34:26.100Z,61.41
2022-08-03T11:37:22.798Z,58.25
2022-08-03T11:39:51.905Z,56.84
2022-08-03T11:42:24.452Z,56.68
2022-08-03T11:44:55.949Z,55.73
2022-08-03T11:47:24.287Z,57.62
2022-08-03T11:49:53.828Z,56.60
2022-08-03T11:52:27.033Z,56.24
2022-08-03T11:54:56.753Z,57.57
2022-08-03T11:59:11.241Z,57.13
2022-08-03T12:00:28.315Z,55.93
2022-08-03T12:02:56.844Z,57.28
2022-08-03T12:05:37.144Z,57.23
2022-08-03T12:08:06.618Z,55.17
2022-08-03T12:10:33.907Z,54.84
2022-08-03T12:13:01.811Z,56.95
2022-08-03T12:15:30.259Z,54.21
2022-08-03T12:17:58.124Z,54.67
2022-08-03T12:20:34.633Z,55.29
2022-08-03T12:23:04.414Z,54.58
2022-08-03T12:25:39.474Z,54.86
2022-08-03T12:28:37.291Z,54.20
2022-08-03T12:31:09.374Z,53.79
2022-08-03T12:34:02.692Z,53.13
2022-08-03T12:36:32.540Z,53.22
2022-08-03T12:39:04.853Z,53.75
2022-08-03T12:41:37.324Z,53.51
2022-08-03T12:44:05.850Z,52.70
2022-08-03T12:46:47.358Z,53.38
2022-08-03T12:49:16.934Z,52.55
2022-08-03T12:51:43.355Z,54.46
2022-08-03T12:54:34.441Z,52.25
2022-08-03T12:57:08.930Z,51.68
2022-08-03T12:59:52.882Z,51.57
2022-08-03T13:02:25.613Z,52.29
2022-08-03T13:04:53.963Z,52.00
2022-08-03T13:07:21.811Z,53.49
2022-08-03T13:09:53.050Z,51.53
2022-08-03T13:12:25.119Z,52.44
2022-08-03T13:15:00.981Z,51.50
2022-08-03T13:17:28.219Z,51.49
2022-08-03T13:19:54.689Z,51.17
2022-08-03T13:22:24.369Z,52.28
2022-08-03T13:24:53.276Z,51.97
2022-08-03T13:28:00.929Z,52.18
2022-08-03T13:30:08.090Z,52.37
2022-08-03T13:32:34.984Z,52.27
2022-08-03T13:35:02.737Z,53.21
2022-08-03T13:37:32.048Z,53.21
2022-08-03T13:40:02.870Z,54.25
2022-08-03T13:42:31.448Z,53.77
2022-08-03T13:44:58.862Z,53.88
2022-08-03T13:47:25.740Z,54.40
2022-08-03T13:49:54.297Z,54.42
2022-08-03T13:52:27.825Z,54.28
2022-08-03T13:54:54.270Z,54.41
2022-08-03T13:58:05.775Z,55.30
2022-08-03T14:00:07.981Z,55.87
2022-08-03T14:02:34.344Z,55.56
2022-08-03T14:05:00.801Z,54.86
2022-08-03T14:07:27.172Z,56.22
2022-08-03T14:09:53.514Z,56.67
2022-08-03T14:12:19.881Z,56.14
2022-08-03T14:14:46.363Z,56.24
2022-08-03T14:17:12.724Z,57.00
2022-08-03T14:19:53.590Z,56.63
2022-08-03T14:22:21.186Z,57.25
2022-08-03T14:24:49.319Z,56.34
2022-08-03T14:27:16.075Z,57.76
2022-08-03T14:29:42.668Z,56.60
2022-08-03T14:32:12.566Z,56.09
2022-08-03T14:34:39.603Z,56.09
2022-08-03T14:37:06.009Z,57.56
2022-08-03T14:42:20.344Z,56.05
2022-08-03T14:44:47.059Z,57.56
2022-08-03T14:47:14.073Z,55.03
2022-08-03T14:50:32.675Z,55.74
2022-08-03T14:52:27.014Z,56.46
2022-08-03T14:54:53.409Z,55.55
2022-08-03T14:57:19.911Z,54.90
2022-08-03T14:59:55.759Z,56.08
2022-08-03T15:02:24.219Z,57.09
2022-08-03T15:04:51.003Z,55.96
2022-08-03T15:07:17.454Z,55.41
2022-08-03T15:09:44.090Z,56.19
2022-08-03T15:12:10.472Z,55.39
2022-08-03T15:14:37.885Z,55.60
2022-08-03T15:17:05.280Z,55.60
2022-08-03T15:20:00.218Z,54.39
2022-08-03T15:22:20.700Z,54.52
2022-08-03T15:24:51.652Z,55.69
2022-08-03T15:27:18.517Z,56.01
2022-08-03T15:30:08.168Z,54.64
2022-08-03T15:32:31.551Z,55.03
2022-08-03T15:34:58.012Z,55.65
2022-08-03T15:37:25.652Z,56.01
2022-08-03T15:39:59.537Z,56.33
2022-08-03T15:42:28.462Z,55.73
2022-08-03T15:44:54.910Z,55.70
2022-08-03T15:47:21.677Z,55.57
2022-08-03T15:49:48.320Z,57.25
2022-08-03T15:52:14.688Z,55.85
2022-08-03T15:54:41.066Z,56.19
2022-08-03T15:57:07.812Z,54.17
2022-08-03T15:59:34.225Z,55.37
2022-08-03T16:02:00.647Z,56.06
2022-08-03T16:04:27.348Z,55.08
2022-08-03T16:06:53.740Z,55.48
2022-08-03T16:09:24.325Z,54.79
2022-08-03T16:12:06.634Z,54.67
2022-08-03T16:14:51.289Z,56.27
2022-08-03T16:17:19.339Z,55.57
2022-08-03T16:19:46.067Z,55.59
2022-08-03T16:22:12.849Z,55.70
2022-08-03T16:24:40.896Z,55.64
2022-08-03T16:27:07.814Z,54.82
2022-08-03T16:29:44.677Z,56.53
2022-08-03T16:32:11.439Z,56.33
2022-08-03T16:34:39.203Z,56.12
2022-08-03T16:37:35.307Z,56.65
2022-08-03T16:39:53.278Z,56.02
2022-08-03T16:42:19.780Z,56.81
2022-08-03T16:44:46.162Z,55.89
2022-08-03T16:47:21.748Z,57.28
2022-08-03T16:49:54.593Z,56.10
2022-08-03T16:52:23.381Z,56.67
2022-08-03T16:54:50.757Z,56.38
2022-08-03T16:57:56.382Z,58.15
2022-08-03T17:00:10.017Z,58.24
2022-08-03T17:02:37.191Z,58.59
2022-08-03T17:05:04.716Z,58.07
2022-08-03T17:07:31.322Z,58.46
2022-08-03T17:09:58.409Z,60.20
2022-08-03T17:12:26.785Z,59.04
2022-08-03T17:14:54.091Z,59.71
2022-08-03T17:17:29.616Z,60.57
2022-08-03T17:20:10.231Z,59.61
2022-08-03T17:22:45.774Z,59.85
2022-08-03T17:25:22.229Z,60.74
2022-08-03T17:28:49.400Z,60.19
2022-08-03T17:31:22.864Z,61.21
2022-08-03T17:33:54.552Z,60.73
2022-08-03T17:36:22.590Z,61.60
2022-08-03T17:38:56.347Z,61.76
2022-08-03T17:41:23.511Z,61.69
2022-08-03T17:44:15.200Z,62.91
2022-08-03T17:46:39.132Z,62.71
2022-08-03T17:49:24.805Z,63.08
2022-08-03T17:51:57.842Z,62.86
2022-08-03T17:54:28.963Z,64.02
2022-08-03T17:57:21.904Z,64.61
2022-08-03T18:00:25.980Z,67.37
2022-08-03T18:03:20.892Z,68.28
2022-08-03T18:06:11.194Z,66.66
2022-08-03T18:08:46.399Z,68.94
2022-08-03T18:11:16.655Z,69.02
2022-08-03T18:14:16.284Z,69.32
2022-08-03T18:16:52.243Z,71.82
2022-08-03T18:19:20.577Z,72.31
2022-08-03T18:22:10.011Z,73.25
2022-08-03T18:24:37.832Z,74.24
2022-08-03T18:27:05.496Z,74.78
2022-08-03T18:29:35.402Z,74.58
2022-08-03T18:32:06.071Z,74.19
2022-08-03T18:34:36.753Z,74.56
2022-08-03T18:37:25.115Z,75.46
2022-08-03T18:39:55.562Z,74.66
2022-08-03T18:42:26.478Z,74.49
2022-08-03T18:44:56.240Z,75.15
2022-08-03T18:47:51.821Z,76.11
2022-08-03T18:50:28.185Z,76.66
2022-08-03T18:53:16.280Z,77.89
2022-08-03T18:56:01.990Z,79.65
2022-08-03T18:58:43.485Z,79.56
2022-08-03T19:01:57.870Z,79.77
2022-08-03T19:04:38.697Z,81.27
2022-08-03T19:07:09.347Z,81.88
2022-08-03T19:09:47.609Z,82.18
2022-08-03T19:12:30.552Z,82.14
2022-08-03T19:15:03.859Z,82.81
2022-08-03T19:17:36.010Z,82.96
2022-08-03T19:20:06.154Z,83.05
2022-08-03T19:22:33.234Z,83.74
2022-08-03T19:25:02.237Z,84.36
2022-08-03T19:27:31.067Z,82.65
2022-08-03T19:30:03.766Z,83.55
2022-08-03T19:32:32.731Z,83.24
2022-08-03T19:35:02.081Z,83.43
2022-08-03T19:37:38.032Z,83.61
2022-08-03T19:40:10.283Z,84.01
2022-08-03T19:42:44.290Z,85.24
2022-08-03T19:45:15.245Z,84.87
2022-08-03T19:47:51.604Z,85.01
2022-08-03T19:50:20.276Z,84.68
2022-08-03T19:52:49.555Z,84.04
2022-08-03T19:55:17.667Z,84.78
2022-08-03T19:57:49.258Z,85.07
2022-08-03T20:00:19.871Z,84.48
2022-08-03T20:02:47.217Z,86.18
2022-08-03T20:05:18.675Z,86.19
2022-08-03T20:07:47.666Z,85.16
2022-08-03T20:10:16.487Z,86.41
2022-08-03T20:12:44.295Z,86.79
2022-08-03T20:15:11.296Z,88.11
2022-08-03T20:17:56.546Z,87.66
2022-08-03T20:20:36.372Z,88.14
2022-08-03T20:23:13.102Z,88.54
2022-08-03T20:25:58.660Z,89.41
2022-08-03T20:28:50.681Z,88.86
2022-08-03T20:31:19.274Z,89.20
2022-08-03T20:33:49.459Z,89.90
2022-08-03T20:36:17.782Z,89.04
2022-08-03T20:38:47.344Z,90.27
2022-08-03T20:41:14.829Z,91.00
2022-08-03T20:43:41.673Z,91.30
2022-08-03T20:46:35.336Z,91.58
2022-08-03T20:48:57.155Z,92.03
2022-08-03T20:51:49.820Z,92.24
2022-08-03T20:54:23.079Z,93.71
2022-08-03T20:56:58.363Z,94.89
2022-08-03T20:59:34.826Z,95.11
2022-08-03T21:02:14.103Z,96.17
2022-08-03T21:04:47.427Z,96.95
2022-08-03T21:07:19.093Z,95.89
2022-08-03T21:09:57.141Z,96.81
2022-08-03T21:12:33.760Z,97.74
2022-08-03T21:15:04.224Z,98.39
2022-08-03T21:17:40.357Z,99.35
2022-08-03T21:20:09.798Z,98.33
2022-08-03T21:22:38.657Z,99.84
2022-08-03T21:25:09.163Z,100.00
2022-08-03T21:27:36.858Z,100.00
2022-08-03T21:30:07.777Z,100.00
2022-08-03T21:32:34.730Z,100.00
2022-08-03T21:35:01.361Z,100.00
2022-08-03T21:37:29.243Z,100.00
2022-08-03T21:39:56.490Z,100.00
2022-08-03T21:42:23.920Z,100.00
2022-08-03T21:44:53.822Z,100.00
2022-08-03T21:47:24.202Z,100.00
2022-08-03T21:50:06.579Z,100.00
2022-08-03T21:52:41.976Z,100.00
2022-08-03T21:55:08.930Z,100.00
2022-08-03T21:57:51.345Z,100.00
2022-08-03T22:00:19.435Z,100.00
2022-08-03T22:02:54.848Z,100.00
2022-08-03T22:05:43.025Z,100.00
2022-08-03T22:08:13.401Z,100.00
2022-08-03T22:10:40.428Z,100.00
2022-08-03T22:13:06.815Z,100.00
2022-08-03T22:15:33.292Z,100.00
2022-08-03T22:18:03.412Z,100.00
2022-08-03T22:20:29.935Z,100.00
2022-08-03T22:23:00.073Z,100.00
2022-08-03T22:25:32.200Z,100.00
2022-08-03T22:28:04.923Z,100.00
2022-08-03T22:30:32.990Z,100.00
2022-08-03T22:33:01.302Z,100.00
2022-08-03T22:35:28.224Z,100.00
2022-08-03T22:37:57.115Z,100.00
2022-08-03T22:40:23.850Z,100.00
2022-08-03T22:42:51.956Z,100.00
2022-08-03T22:46:06.170Z,100.00
2022-08-03T22:48:08.163Z,100.00
2022-08-03T22:50:35.122Z,100.00
2022-08-03T22:53:01.711Z,100.00
2022-08-03T22:55:28.470Z,100.00
2022-08-03T22:57:55.882Z,100.00
2022-08-03T23:00:22.719Z,100.00
2022-08-03T23:02:53.182Z,100.00
2022-08-03T23:06:00.802Z,100.00
2022-08-03T23:08:16.700Z,100.00
2022-08-03T23:10:47.220Z,100.00
2022-08-03T23:13:17.180Z,100.00
2022-08-03T23:15:50.906Z,100.00
2022-08-03T23:18:20.757Z,100.00
2022-08-03T23:20:51.394Z,100.00
2022-08-03T23:23:19.812Z,100.00
2022-08-03T23:25:49.525Z,100.00
2022-08-03T23:28:16.420Z,100.00
2022-08-03T23:30:44.474Z,100.00
2022-08-03T23:33:14.972Z,100.00
2022-08-03T23:36:20.178Z,100.00
2022-08-03T23:38:44.512Z,100.00
2022-08-03T23:41:12.520Z,100.00
2022-08-03T23:43:51.217Z,100.00
2022-08-03T23:46:22.060Z,100.00
2022-08-03T23:48:48.541Z,100.00
2022-08-03T23:51:39.004Z,100.00
2022-08-03T23:54:23.324Z,100.00
2022-08-03T23:56:59.088Z,100.00
2022-08-03T23:59:47.067Z,100.00
